sensor_id;sensor_type;location;lat;lon;timestamp;pressure;altitude;pressure_sealevel;temperature;humidity
66945;BME280;53853;51.982;5.928;2023-03-01T00:00:17;103089.34;;;2.28;54.82
66945;BME280;53853;51.982;5.928;2023-03-01T00:02:47;103089.41;;;2.27;54.42
66945;BME280;53853;51.982;5.928;2023-03-01T00:05:17;103085.88;;;2.28;54.24
66945;BME280;53853;51.982;5.928;2023-03-01T00:07:47;103086.88;;;2.24;54.73
66945;BME280;53853;51.982;5.928;2023-03-01T00:10:19;103080.75;;;2.22;54.45
66945;BME280;53853;51.982;5.928;2023-03-01T00:12:49;103085.22;;;2.20;54.99
66945;BME280;53853;51.982;5.928;2023-03-01T00:15:20;103083.47;;;2.18;55.06
66945;BME280;53853;51.982;5.928;2023-03-01T00:17:50;103087.91;;;2.16;55.40
66945;BME280;53853;51.982;5.928;2023-03-01T00:20:19;103079.19;;;2.16;54.38
66945;BME280;53853;51.982;5.928;2023-03-01T00:22:49;103065.09;;;2.17;54.69
66945;BME280;53853;51.982;5.928;2023-03-01T00:25:22;103064.22;;;2.18;55.49
66945;BME280;53853;51.982;5.928;2023-03-01T00:27:52;103058.06;;;2.19;54.99
66945;BME280;53853;51.982;5.928;2023-03-01T00:30:22;103061.53;;;2.20;55.31
66945;BME280;53853;51.982;5.928;2023-03-01T00:32:53;103061.56;;;2.18;55.67
66945;BME280;53853;51.982;5.928;2023-03-01T00:35:23;103067.78;;;2.15;55.68
66945;BME280;53853;51.982;5.928;2023-03-01T00:37:53;103061.72;;;2.12;55.53
66945;BME280;53853;51.982;5.928;2023-03-01T00:40:28;103072.25;;;2.12;55.09
66945;BME280;53853;51.982;5.928;2023-03-01T00:42:58;103061.84;;;2.07;55.50
66945;BME280;53853;51.982;5.928;2023-03-01T00:45:28;103061.00;;;2.07;55.75
66945;BME280;53853;51.982;5.928;2023-03-01T00:47:59;103066.25;;;2.07;56.33
66945;BME280;53853;51.982;5.928;2023-03-01T00:50:29;103067.13;;;2.07;55.38
66945;BME280;53853;51.982;5.928;2023-03-01T00:52:59;103061.06;;;2.04;54.92
66945;BME280;53853;51.982;5.928;2023-03-01T00:55:31;103057.63;;;2.02;55.75
66945;BME280;53853;51.982;5.928;2023-03-01T00:58:01;103055.03;;;2.00;55.77
66945;BME280;53853;51.982;5.928;2023-03-01T01:00:31;103045.53;;;1.94;55.83
66945;BME280;53853;51.982;5.928;2023-03-01T01:03:01;103041.19;;;1.92;56.21
66945;BME280;53853;51.982;5.928;2023-03-01T01:05:31;103042.97;;;1.91;56.52
66945;BME280;53853;51.982;5.928;2023-03-01T01:08:03;103044.78;;;1.89;56.59
66945;BME280;53853;51.982;5.928;2023-03-01T01:10:36;103039.50;;;1.91;55.82
66945;BME280;53853;51.982;5.928;2023-03-01T01:13:07;103033.38;;;1.89;55.78
66945;BME280;53853;51.982;5.928;2023-03-01T01:15:37;103037.00;;;1.85;56.06
66945;BME280;53853;51.982;5.928;2023-03-01T01:18:07;103037.91;;;1.84;56.17
66945;BME280;53853;51.982;5.928;2023-03-01T01:20:37;103032.59;;;1.85;55.76
66945;BME280;53853;51.982;5.928;2023-03-01T01:23:07;103029.22;;;1.81;56.28
66945;BME280;53853;51.982;5.928;2023-03-01T01:25:40;103024.03;;;1.78;56.42
66945;BME280;53853;51.982;5.928;2023-03-01T01:28:10;103024.19;;;1.72;56.77
66945;BME280;53853;51.982;5.928;2023-03-01T01:30:40;103021.69;;;1.66;56.72
66945;BME280;53853;51.982;5.928;2023-03-01T01:33:09;103011.19;;;1.66;56.34
66945;BME280;53853;51.982;5.928;2023-03-01T01:35:39;103011.19;;;1.66;56.30
66945;BME280;53853;51.982;5.928;2023-03-01T01:38:09;103012.06;;;1.67;56.06
66945;BME280;53853;51.982;5.928;2023-03-01T01:40:46;103023.50;;;1.64;56.12
66945;BME280;53853;51.982;5.928;2023-03-01T01:43:22;103016.41;;;1.68;55.50
66945;BME280;53853;51.982;5.928;2023-03-01T01:45:54;103015.47;;;1.70;55.20
66945;BME280;53853;51.982;5.928;2023-03-01T01:48:28;103012.78;;;1.73;55.03
66945;BME280;53853;51.982;5.928;2023-03-01T01:51:09;103012.78;;;1.73;55.17
66945;BME280;53853;51.982;5.928;2023-03-01T01:53:41;103015.47;;;1.70;55.48
66945;BME280;53853;51.982;5.928;2023-03-01T01:56:15;103016.44;;;1.66;55.17
66945;BME280;53853;51.982;5.928;2023-03-01T01:58:46;103015.50;;;1.69;54.87
66945;BME280;53853;51.982;5.928;2023-03-01T02:01:17;103020.72;;;1.70;54.82
66945;BME280;53853;51.982;5.928;2023-03-01T02:03:47;103019.00;;;1.69;55.10
66945;BME280;53853;51.982;5.928;2023-03-01T02:06:21;103016.31;;;1.71;54.88
66945;BME280;53853;51.982;5.928;2023-03-01T02:08:59;103019.00;;;1.69;55.25
66945;BME280;53853;51.982;5.928;2023-03-01T02:11:33;103010.31;;;1.66;55.66
66945;BME280;53853;51.982;5.928;2023-03-01T02:14:04;103013.06;;;1.61;55.84
66945;BME280;53853;51.982;5.928;2023-03-01T02:16:34;103010.50;;;1.58;56.10
66945;BME280;53853;51.982;5.928;2023-03-01T02:19:05;103014.97;;;1.56;56.27
66945;BME280;53853;51.982;5.928;2023-03-01T02:21:42;103009.78;;;1.53;56.60
66945;BME280;53853;51.982;5.928;2023-03-01T02:24:21;103002.81;;;1.50;56.57
66945;BME280;53853;51.982;5.928;2023-03-01T02:26:57;102995.00;;;1.47;57.40
66945;BME280;53853;51.982;5.928;2023-03-01T02:29:30;102993.38;;;1.43;57.95
66945;BME280;53853;51.982;5.928;2023-03-01T02:32:02;102993.47;;;1.38;57.77
66945;BME280;53853;51.982;5.928;2023-03-01T02:34:32;102989.19;;;1.34;57.92
66945;BME280;53853;51.982;5.928;2023-03-01T02:37:09;102992.69;;;1.33;57.66
66945;BME280;53853;51.982;5.928;2023-03-01T02:39:46;102986.66;;;1.30;58.39
66945;BME280;53853;51.982;5.928;2023-03-01T02:42:20;102993.63;;;1.32;57.01
66945;BME280;53853;51.982;5.928;2023-03-01T02:44:54;102988.50;;;1.26;57.71
66945;BME280;53853;51.982;5.928;2023-03-01T02:47:23;102989.38;;;1.26;57.35
66945;BME280;53853;51.982;5.928;2023-03-01T02:49:53;102982.44;;;1.24;58.19
66945;BME280;53853;51.982;5.928;2023-03-01T02:52:41;102981.59;;;1.22;57.74
66945;BME280;53853;51.982;5.928;2023-03-01T02:55:16;102986.84;;;1.22;57.65
66945;BME280;53853;51.982;5.928;2023-03-01T02:57:48;102983.28;;;1.24;57.12
66945;BME280;53853;51.982;5.928;2023-03-01T03:00:24;102984.22;;;1.22;57.93
66945;BME280;53853;51.982;5.928;2023-03-01T03:02:56;102980.72;;;1.23;58.19
66945;BME280;53853;51.982;5.928;2023-03-01T03:05:28;102979.75;;;1.27;57.35
66945;BME280;53853;51.982;5.928;2023-03-01T03:08:00;102974.50;;;1.27;57.89
66945;BME280;53853;51.982;5.928;2023-03-01T03:10:36;102971.84;;;1.29;57.65
66945;BME280;53853;51.982;5.928;2023-03-01T03:13:08;102972.66;;;1.31;57.45
66945;BME280;53853;51.982;5.928;2023-03-01T03:15:42;102975.31;;;1.29;57.71
66945;BME280;53853;51.982;5.928;2023-03-01T03:18:16;102970.91;;;1.30;57.44
66945;BME280;53853;51.982;5.928;2023-03-01T03:20:47;102978.00;;;1.26;57.70
66945;BME280;53853;51.982;5.928;2023-03-01T03:23:20;102971.94;;;1.24;58.08
66945;BME280;53853;51.982;5.928;2023-03-01T03:25:50;102968.34;;;1.26;57.28
66945;BME280;53853;51.982;5.928;2023-03-01T03:28:20;102965.81;;;1.23;57.63
66945;BME280;53853;51.982;5.928;2023-03-01T03:30:53;102967.59;;;1.21;57.96
66945;BME280;53853;51.982;5.928;2023-03-01T03:33:23;102966.69;;;1.24;57.15
66945;BME280;53853;51.982;5.928;2023-03-01T03:35:53;102960.63;;;1.20;58.02
66945;BME280;53853;51.982;5.928;2023-03-01T03:38:23;102961.63;;;1.16;58.50
66945;BME280;53853;51.982;5.928;2023-03-01T03:41:01;102969.56;;;1.13;58.91
66945;BME280;53853;51.982;5.928;2023-03-01T03:43:34;102964.41;;;1.08;58.89
66945;BME280;53853;51.982;5.928;2023-03-01T03:46:08;102968.84;;;1.06;58.60
66945;BME280;53853;51.982;5.928;2023-03-01T03:48:40;102954.91;;;1.03;59.05
66945;BME280;53853;51.982;5.928;2023-03-01T03:51:11;102959.38;;;0.99;59.34
66945;BME280;53853;51.982;5.928;2023-03-01T03:53:42;102954.16;;;0.98;59.11
66945;BME280;53853;51.982;5.928;2023-03-01T03:56:12;102961.13;;;0.99;59.00
66945;BME280;53853;51.982;5.928;2023-03-01T03:58:42;102954.16;;;0.98;59.10
66945;BME280;53853;51.982;5.928;2023-03-01T04:01:14;102951.56;;;0.96;59.47
66945;BME280;53853;51.982;5.928;2023-03-01T04:03:44;102952.56;;;0.92;59.97
66945;BME280;53853;51.982;5.928;2023-03-01T04:06:14;102954.28;;;0.92;59.61
66945;BME280;53853;51.982;5.928;2023-03-01T04:08:44;102961.31;;;0.91;59.61
66945;BME280;53853;51.982;5.928;2023-03-01T04:11:17;102953.47;;;0.89;59.70
66945;BME280;53853;51.982;5.928;2023-03-01T04:13:57;102958.69;;;0.91;59.49
66945;BME280;53853;51.982;5.928;2023-03-01T04:16:30;102952.63;;;0.89;59.76
66945;BME280;53853;51.982;5.928;2023-03-01T04:19:00;102947.41;;;0.87;59.72
66945;BME280;53853;51.982;5.928;2023-03-01T04:21:30;102952.69;;;0.86;59.75
66945;BME280;53853;51.982;5.928;2023-03-01T04:24:00;102948.31;;;0.85;60.42
66945;BME280;53853;51.982;5.928;2023-03-01T04:26:30;102942.25;;;0.83;60.91
66945;BME280;53853;51.982;5.928;2023-03-01T04:29:00;102941.41;;;0.81;60.44
66945;BME280;53853;51.982;5.928;2023-03-01T04:31:32;102939.75;;;0.77;60.88
66945;BME280;53853;51.982;5.928;2023-03-01T04:34:02;102933.69;;;0.75;60.32
66945;BME280;53853;51.982;5.928;2023-03-01T04:36:32;102939.88;;;0.72;60.75
66945;BME280;53853;51.982;5.928;2023-03-01T04:39:02;102944.25;;;0.71;61.11
66945;BME280;53853;51.982;5.928;2023-03-01T04:41:39;102936.44;;;0.68;61.38
66945;BME280;53853;51.982;5.928;2023-03-01T04:44:10;102939.06;;;0.68;61.40
66945;BME280;53853;51.982;5.928;2023-03-01T04:46:43;102930.34;;;0.66;61.23
66945;BME280;53853;51.982;5.928;2023-03-01T04:49:12;102931.28;;;0.65;61.31
66945;BME280;53853;51.982;5.928;2023-03-01T04:51:42;102930.31;;;0.68;61.46
66945;BME280;53853;51.982;5.928;2023-03-01T04:54:12;102932.91;;;0.69;61.16
66945;BME280;53853;51.982;5.928;2023-03-01T04:56:43;102925.00;;;0.71;61.97
66945;BME280;53853;51.982;5.928;2023-03-01T04:59:12;102925.88;;;0.71;61.14
66945;BME280;53853;51.982;5.928;2023-03-01T05:01:45;102926.75;;;0.72;61.70
66945;BME280;53853;51.982;5.928;2023-03-01T05:04:15;102919.72;;;0.72;61.65
66945;BME280;53853;51.982;5.928;2023-03-01T05:06:45;102914.47;;;0.72;61.74
66945;BME280;53853;51.982;5.928;2023-03-01T05:09:15;102917.97;;;0.73;61.96
66945;BME280;53853;51.982;5.928;2023-03-01T05:11:45;102907.47;;;0.73;61.30
66945;BME280;53853;51.982;5.928;2023-03-01T05:14:15;102902.19;;;0.75;61.70
66945;BME280;53853;51.982;5.928;2023-03-01T05:16:47;102904.81;;;0.75;61.96
66945;BME280;53853;51.982;5.928;2023-03-01T05:19:17;102902.28;;;0.71;62.45
66945;BME280;53853;51.982;5.928;2023-03-01T05:21:49;102899.72;;;0.68;62.33
66945;BME280;53853;51.982;5.928;2023-03-01T05:24:33;102885.78;;;0.65;62.31
66945;BME280;53853;51.982;5.928;2023-03-01T05:27:03;102886.69;;;0.64;61.34
66945;BME280;53853;51.982;5.928;2023-03-01T05:29:33;102873.63;;;0.62;61.44
66945;BME280;53853;51.982;5.928;2023-03-01T05:32:06;102874.47;;;0.63;61.35
66945;BME280;53853;51.982;5.928;2023-03-01T05:34:36;102868.38;;;0.62;62.08
66945;BME280;53853;51.982;5.928;2023-03-01T05:37:07;102872.72;;;0.62;62.33
66945;BME280;53853;51.982;5.928;2023-03-01T05:39:37;102876.28;;;0.61;62.54
66945;BME280;53853;51.982;5.928;2023-03-01T05:42:11;102880.63;;;0.60;61.92
66945;BME280;53853;51.982;5.928;2023-03-01T05:44:41;102882.44;;;0.58;62.25
66945;BME280;53853;51.982;5.928;2023-03-01T05:47:14;102872.94;;;0.54;63.09
66945;BME280;53853;51.982;5.928;2023-03-01T05:49:43;102878.25;;;0.51;63.07
66945;BME280;53853;51.982;5.928;2023-03-01T05:52:13;102881.75;;;0.50;63.15
66945;BME280;53853;51.982;5.928;2023-03-01T05:54:43;102875.66;;;0.49;62.72
66945;BME280;53853;51.982;5.928;2023-03-01T05:57:13;102873.88;;;0.50;62.47
66945;BME280;53853;51.982;5.928;2023-03-01T05:59:43;102866.00;;;0.50;62.90
66945;BME280;53853;51.982;5.928;2023-03-01T06:02:15;102865.13;;;0.51;62.54
66945;BME280;53853;51.982;5.928;2023-03-01T06:04:45;102866.78;;;0.53;62.42
66945;BME280;53853;51.982;5.928;2023-03-01T06:07:15;102871.22;;;0.51;62.85
66945;BME280;53853;51.982;5.928;2023-03-01T06:09:45;102873.00;;;0.51;62.85
66945;BME280;53853;51.982;5.928;2023-03-01T06:12:14;102872.97;;;0.52;62.89
66945;BME280;53853;51.982;5.928;2023-03-01T06:14:45;102871.22;;;0.51;63.57
66945;BME280;53853;51.982;5.928;2023-03-01T06:17:19;102872.06;;;0.52;63.23
66945;BME280;53853;51.982;5.928;2023-03-01T06:19:48;102880.88;;;0.51;63.81
66945;BME280;53853;51.982;5.928;2023-03-01T06:22:18;102875.66;;;0.49;63.76
66945;BME280;53853;51.982;5.928;2023-03-01T06:24:48;102882.75;;;0.44;63.95
66945;BME280;53853;51.982;5.928;2023-03-01T06:27:18;102874.00;;;0.44;63.89
66945;BME280;53853;51.982;5.928;2023-03-01T06:29:48;102881.06;;;0.42;64.26
66945;BME280;53853;51.982;5.928;2023-03-01T06:32:20;102870.56;;;0.42;64.18
66945;BME280;53853;51.982;5.928;2023-03-01T06:34:51;102874.94;;;0.41;64.12
66945;BME280;53853;51.982;5.928;2023-03-01T06:37:21;102870.56;;;0.42;64.57
66945;BME280;53853;51.982;5.928;2023-03-01T06:39:50;102871.38;;;0.44;64.64
66945;BME280;53853;51.982;5.928;2023-03-01T06:42:20;102866.13;;;0.45;64.70
66945;BME280;53853;51.982;5.928;2023-03-01T06:44:50;102859.03;;;0.49;64.88
66945;BME280;53853;51.982;5.928;2023-03-01T06:47:23;102861.66;;;0.49;64.88
66945;BME280;53853;51.982;5.928;2023-03-01T06:49:52;102866.91;;;0.49;65.40
66945;BME280;53853;51.982;5.928;2023-03-01T06:52:22;102875.63;;;0.51;65.58
66945;BME280;53853;51.982;5.928;2023-03-01T06:54:52;102878.28;;;0.49;65.74
66945;BME280;53853;51.982;5.928;2023-03-01T06:57:22;102884.34;;;0.51;66.06
66945;BME280;53853;51.982;5.928;2023-03-01T06:59:52;102881.66;;;0.54;65.99
66945;BME280;53853;51.982;5.928;2023-03-01T07:02:25;102886.75;;;0.61;65.40
66945;BME280;53853;51.982;5.928;2023-03-01T07:04:55;102885.78;;;0.65;65.22
66945;BME280;53853;51.982;5.928;2023-03-01T07:07:25;102883.97;;;0.68;65.11
66945;BME280;53853;51.982;5.928;2023-03-01T07:09:54;102885.59;;;0.72;63.77
66945;BME280;53853;51.982;5.928;2023-03-01T07:12:24;102878.47;;;0.78;63.63
66945;BME280;53853;51.982;5.928;2023-03-01T07:14:54;102886.22;;;0.84;63.54
66945;BME280;53853;51.982;5.928;2023-03-01T07:17:27;102880.81;;;0.90;63.66
66945;BME280;53853;51.982;5.928;2023-03-01T07:19:56;102881.53;;;0.97;63.19
66945;BME280;53853;51.982;5.928;2023-03-01T07:22:26;102883.13;;;1.04;63.32
66945;BME280;53853;51.982;5.928;2023-03-01T07:24:56;102875.06;;;1.12;62.88
66945;BME280;53853;51.982;5.928;2023-03-01T07:27:26;102872.28;;;1.18;62.56
66945;BME280;53853;51.982;5.928;2023-03-01T07:29:56;102879.16;;;1.22;61.86
66945;BME280;53853;51.982;5.928;2023-03-01T07:32:28;102878.13;;;1.29;61.91
66945;BME280;53853;51.982;5.928;2023-03-01T07:34:58;102876.97;;;1.39;61.36
66945;BME280;53853;51.982;5.928;2023-03-01T07:37:28;102870.53;;;1.51;60.83
66945;BME280;53853;51.982;5.928;2023-03-01T07:39:58;102872.88;;;1.62;60.48
66945;BME280;53853;51.982;5.928;2023-03-01T07:42:28;102873.53;;;1.70;60.41
66945;BME280;53853;51.982;5.928;2023-03-01T07:44:57;102870.63;;;1.81;60.15
66945;BME280;53853;51.982;5.928;2023-03-01T07:47:30;102879.09;;;1.91;59.76
66945;BME280;53853;51.982;5.928;2023-03-01T07:50:00;102871.00;;;1.98;60.20
66945;BME280;53853;51.982;5.928;2023-03-01T07:52:30;102875.94;;;2.09;59.79
66945;BME280;53853;51.982;5.928;2023-03-01T07:55:00;102880.91;;;2.18;58.99
66945;BME280;53853;51.982;5.928;2023-03-01T07:57:30;102883.28;;;2.28;59.09
66945;BME280;53853;51.982;5.928;2023-03-01T08:00:00;102877.84;;;2.34;59.02
66945;BME280;53853;51.982;5.928;2023-03-01T08:02:41;102874.94;;;2.43;59.02
66945;BME280;53853;51.982;5.928;2023-03-01T08:05:12;102885.25;;;2.51;58.27
66945;BME280;53853;51.982;5.928;2023-03-01T08:07:42;102877.22;;;2.56;58.10
66945;BME280;53853;51.982;5.928;2023-03-01T08:10:12;102883.22;;;2.59;57.71
66945;BME280;53853;51.982;5.928;2023-03-01T08:12:41;102895.13;;;2.71;57.76
66945;BME280;53853;51.982;5.928;2023-03-01T08:15:11;102886.16;;;2.78;57.66
66945;BME280;53853;51.982;5.928;2023-03-01T08:17:44;102885.94;;;2.84;56.78
66945;BME280;53853;51.982;5.928;2023-03-01T08:20:14;102892.78;;;2.90;57.23
66945;BME280;53853;51.982;5.928;2023-03-01T08:22:44;102889.91;;;2.98;56.77
66945;BME280;53853;51.982;5.928;2023-03-01T08:25:13;102885.19;;;3.07;56.72
66945;BME280;53853;51.982;5.928;2023-03-01T08:27:43;102884.00;;;3.18;56.18
66945;BME280;53853;51.982;5.928;2023-03-01T08:30:14;102882.91;;;3.23;55.95
66945;BME280;53853;51.982;5.928;2023-03-01T08:32:46;102879.97;;;3.33;55.47
66945;BME280;53853;51.982;5.928;2023-03-01T08:35:16;102873.69;;;3.37;54.93
66945;BME280;53853;51.982;5.928;2023-03-01T08:37:46;102874.16;;;3.48;54.51
66945;BME280;53853;51.982;5.928;2023-03-01T08:40:17;102866.91;;;3.55;54.37
66945;BME280;53853;51.982;5.928;2023-03-01T08:42:46;102862.25;;;3.61;54.31
66945;BME280;53853;51.982;5.928;2023-03-01T08:45:17;102864.69;;;3.68;53.57
66945;BME280;53853;51.982;5.928;2023-03-01T08:47:52;102864.34;;;3.77;53.57
66945;BME280;53853;51.982;5.928;2023-03-01T08:50:23;102853.59;;;3.83;53.38
66945;BME280;53853;51.982;5.928;2023-03-01T08:52:53;102863.25;;;3.84;53.20
66945;BME280;53853;51.982;5.928;2023-03-01T08:55:23;102858.66;;;3.89;52.88
66945;BME280;53853;51.982;5.928;2023-03-01T08:57:52;102860.13;;;3.96;53.29
66945;BME280;53853;51.982;5.928;2023-03-01T09:00:23;102856.28;;;4.05;53.17
66945;BME280;53853;51.982;5.928;2023-03-01T09:02:55;102858.66;;;4.13;53.50
66945;BME280;53853;51.982;5.928;2023-03-01T09:05:25;102855.94;;;4.14;52.37
66945;BME280;53853;51.982;5.928;2023-03-01T09:07:55;102854.03;;;4.18;52.24
66945;BME280;53853;51.982;5.928;2023-03-01T09:10:26;102849.56;;;4.20;51.51
66945;BME280;53853;51.982;5.928;2023-03-01T09:12:56;102837.88;;;4.27;50.59
66945;BME280;53853;51.982;5.928;2023-03-01T09:15:26;102835.00;;;4.33;50.08
66945;BME280;53853;51.982;5.928;2023-03-01T09:17:58;102834.03;;;4.34;50.79
66945;BME280;53853;51.982;5.928;2023-03-01T09:20:29;102845.56;;;4.33;50.91
66945;BME280;53853;51.982;5.928;2023-03-01T09:22:59;102847.13;;;4.38;51.11
66945;BME280;53853;51.982;5.928;2023-03-01T09:25:29;102843.69;;;4.35;50.50
66945;BME280;53853;51.982;5.928;2023-03-01T09:27:59;102840.16;;;4.37;50.63
66945;BME280;53853;51.982;5.928;2023-03-01T09:30:29;102837.22;;;4.44;51.07
66945;BME280;53853;51.982;5.928;2023-03-01T09:33:01;102838.72;;;4.50;50.76
66945;BME280;53853;51.982;5.928;2023-03-01T09:35:31;102835.06;;;4.54;50.86
66945;BME280;53853;51.982;5.928;2023-03-01T09:38:01;102835.19;;;4.51;50.18
66945;BME280;53853;51.982;5.928;2023-03-01T09:40:31;102834.13;;;4.55;50.31
66945;BME280;53853;51.982;5.928;2023-03-01T09:43:05;102829.53;;;4.60;50.43
66945;BME280;53853;51.982;5.928;2023-03-01T09:45:41;102825.91;;;4.63;49.86
66945;BME280;53853;51.982;5.928;2023-03-01T09:48:18;102826.72;;;4.65;49.43
66945;BME280;53853;51.982;5.928;2023-03-01T09:50:50;102820.38;;;4.69;49.27
66945;BME280;53853;51.982;5.928;2023-03-01T09:53:23;102817.59;;;4.72;49.53
66945;BME280;53853;51.982;5.928;2023-03-01T09:55:59;102809.38;;;4.80;49.82
66945;BME280;53853;51.982;5.928;2023-03-01T09:58:37;102810.34;;;4.77;48.54
66945;BME280;53853;51.982;5.928;2023-03-01T10:01:21;102808.66;;;4.76;48.93
66945;BME280;53853;51.982;5.928;2023-03-01T10:04:11;102798.13;;;4.75;48.66
66945;BME280;53853;51.982;5.928;2023-03-01T10:06:47;102803.09;;;4.82;49.30
66945;BME280;53853;51.982;5.928;2023-03-01T10:09:21;102800.28;;;4.87;48.86
66945;BME280;53853;51.982;5.928;2023-03-01T10:11:52;102799.94;;;4.95;48.91
66945;BME280;53853;51.982;5.928;2023-03-01T10:14:32;102803.19;;;5.01;48.46
66945;BME280;53853;51.982;5.928;2023-03-01T10:17:08;102800.69;;;4.98;48.29
66945;BME280;53853;51.982;5.928;2023-03-01T10:19:46;102804.91;;;5.02;47.89
66945;BME280;53853;51.982;5.928;2023-03-01T10:22:19;102802.78;;;5.11;47.71
66945;BME280;53853;51.982;5.928;2023-03-01T10:24:51;102792.88;;;5.16;47.44
66945;BME280;53853;51.982;5.928;2023-03-01T10:27:23;102784.22;;;5.12;46.71
66945;BME280;53853;51.982;5.928;2023-03-01T10:30:02;102783.88;;;5.20;46.81
66945;BME280;53853;51.982;5.928;2023-03-01T10:32:34;102780.97;;;5.26;46.78
66945;BME280;53853;51.982;5.928;2023-03-01T10:35:20;102781.69;;;5.30;46.92
66945;BME280;53853;51.982;5.928;2023-03-01T10:37:59;102768.34;;;5.33;46.72
66945;BME280;53853;51.982;5.928;2023-03-01T10:40:32;102773.56;;;5.34;46.44
66945;BME280;53853;51.982;5.928;2023-03-01T10:43:03;102769.09;;;5.36;47.00
66945;BME280;53853;51.982;5.928;2023-03-01T10:45:36;102773.34;;;5.39;46.58
66945;BME280;53853;51.982;5.928;2023-03-01T10:48:12;102764.38;;;5.43;46.12
66945;BME280;53853;51.982;5.928;2023-03-01T10:50:46;102773.88;;;5.47;45.80
66945;BME280;53853;51.982;5.928;2023-03-01T10:53:19;102758.94;;;5.46;45.71
66945;BME280;53853;51.982;5.928;2023-03-01T10:55:58;102762.72;;;5.40;46.34
66945;BME280;53853;51.982;5.928;2023-03-01T10:58:29;102759.16;;;5.41;46.44
66945;BME280;53853;51.982;5.928;2023-03-01T11:01:00;102756.16;;;5.49;46.85
66945;BME280;53853;51.982;5.928;2023-03-01T11:03:32;102740.31;;;5.49;46.89
66945;BME280;53853;51.982;5.928;2023-03-01T11:06:21;102748.59;;;5.60;46.45
66945;BME280;53853;51.982;5.928;2023-03-01T11:08:53;102749.03;;;5.70;44.61
66945;BME280;53853;51.982;5.928;2023-03-01T11:11:29;102746.09;;;5.76;44.84
66945;BME280;53853;51.982;5.928;2023-03-01T11:14:03;102748.47;;;5.83;44.59
66945;BME280;53853;51.982;5.928;2023-03-01T11:16:36;102749.59;;;5.77;44.43
66945;BME280;53853;51.982;5.928;2023-03-01T11:19:18;102738.31;;;5.73;44.72
66945;BME280;53853;51.982;5.928;2023-03-01T11:21:57;102750.25;;;5.82;44.78
66945;BME280;53853;51.982;5.928;2023-03-01T11:24:36;102750.03;;;5.87;44.93
66945;BME280;53853;51.982;5.928;2023-03-01T11:27:17;102756.75;;;5.94;44.69
66945;BME280;53853;51.982;5.928;2023-03-01T11:29:52;102747.78;;;5.98;44.87
66945;BME280;53853;51.982;5.928;2023-03-01T11:32:26;102748.63;;;5.98;44.65
66945;BME280;53853;51.982;5.928;2023-03-01T11:35:02;102747.72;;;6.00;44.32
66945;BME280;53853;51.982;5.928;2023-03-01T11:37:41;102735.34;;;6.00;44.32
66945;BME280;53853;51.982;5.928;2023-03-01T11:40:17;102731.75;;;6.01;43.85
66945;BME280;53853;51.982;5.928;2023-03-01T11:43:09;102733.31;;;6.05;44.59
66945;BME280;53853;51.982;5.928;2023-03-01T11:45:54;102729.44;;;6.12;44.84
66945;BME280;53853;51.982;5.928;2023-03-01T11:48:42;102722.28;;;6.14;44.54
66945;BME280;53853;51.982;5.928;2023-03-01T11:51:24;102722.13;;;6.18;44.52
66945;BME280;53853;51.982;5.928;2023-03-01T11:54:13;102723.69;;;6.22;43.55
66945;BME280;53853;51.982;5.928;2023-03-01T11:56:51;102726.44;;;6.20;43.26
66945;BME280;53853;51.982;5.928;2023-03-01T11:59:45;102719.41;;;6.19;43.29
66945;BME280;53853;51.982;5.928;2023-03-01T12:02:41;102720.88;;;6.25;44.11
66945;BME280;53853;51.982;5.928;2023-03-01T12:08:11;102716.94;;;6.33;44.10
66945;BME280;53853;51.982;5.928;2023-03-01T12:11:00;102713.53;;;6.31;43.60
66945;BME280;53853;51.982;5.928;2023-03-01T12:14:04;102712.34;;;6.37;43.83
66945;BME280;53853;51.982;5.928;2023-03-01T12:16:53;102711.19;;;6.43;43.08
66945;BME280;53853;51.982;5.928;2023-03-01T12:22:30;102686.81;;;6.53;42.39
66945;BME280;53853;51.982;5.928;2023-03-01T12:25:19;102693.19;;;6.49;41.96
66945;BME280;53853;51.982;5.928;2023-03-01T12:31:07;102684.94;;;6.56;42.59
66945;BME280;53853;51.982;5.928;2023-03-01T12:33:51;102686.69;;;6.57;41.82
66945;BME280;53853;51.982;5.928;2023-03-01T12:36:41;102681.09;;;6.61;41.92
66945;BME280;53853;51.982;5.928;2023-03-01T12:39:21;102680.88;;;6.66;41.24
66945;BME280;53853;51.982;5.928;2023-03-01T12:42:01;102673.25;;;6.60;41.69
66945;BME280;53853;51.982;5.928;2023-03-01T12:44:47;102672.09;;;6.65;42.15
66945;BME280;53853;51.982;5.928;2023-03-01T12:47:32;102671.69;;;6.73;42.17
66945;BME280;53853;51.982;5.928;2023-03-01T12:50:13;102679.16;;;6.82;40.90
66945;BME280;53853;51.982;5.928;2023-03-01T12:52:49;102673.06;;;6.80;39.96
66945;BME280;53853;51.982;5.928;2023-03-01T12:55:26;102663.28;;;6.82;39.62
66945;BME280;53853;51.982;5.928;2023-03-01T12:58:05;102655.84;;;6.89;38.35
66945;BME280;53853;51.982;5.928;2023-03-01T13:00:50;102647.03;;;6.88;38.90
66945;BME280;53853;51.982;5.928;2023-03-01T13:03:23;102645.94;;;6.93;39.45
66945;BME280;53853;51.982;5.928;2023-03-01T13:06:07;102647.56;;;6.95;39.49
66945;BME280;53853;51.982;5.928;2023-03-01T13:08:42;102640.31;;;6.99;39.80
66945;BME280;53853;51.982;5.928;2023-03-01T13:11:18;102629.53;;;7.02;40.20
66945;BME280;53853;51.982;5.928;2023-03-01T13:13:49;102625.97;;;7.03;39.58
66945;BME280;53853;51.982;5.928;2023-03-01T13:16:40;102614.88;;;7.12;39.42
66945;BME280;53853;51.982;5.928;2023-03-01T13:19:17;102611.84;;;7.18;39.26
66945;BME280;53853;51.982;5.928;2023-03-01T13:21:49;102609.19;;;7.18;39.87
66945;BME280;53853;51.982;5.928;2023-03-01T13:24:28;102601.16;;;7.20;40.08
66945;BME280;53853;51.982;5.928;2023-03-01T13:27:22;102599.31;;;7.22;40.56
66945;BME280;53853;51.982;5.928;2023-03-01T13:29:57;102592.19;;;7.22;40.47
66945;BME280;53853;51.982;5.928;2023-03-01T13:32:36;102592.09;;;7.24;39.76
66945;BME280;53853;51.982;5.928;2023-03-01T13:35:41;102594.50;;;7.29;40.04
66945;BME280;53853;51.982;5.928;2023-03-01T13:38:36;102584.50;;;7.34;39.84
66945;BME280;53853;51.982;5.928;2023-03-01T13:41:08;102579.94;;;7.36;39.54